Port Hope Simpson, Canada
Current Conditions -  °F | °C
As of 6:00 AM on Sunday 28 Dec 2014 (Local Time) from CYMH Reporting Station
Overcast Overcast  
Wind Chill: 12°   Ceiling: 3500
Heat Index: 23°   Visibility: 9mi
Dew Point: 12°   Wind: 12mph
Humidity: 63%   Direction: 280°W
Pressure: 29.54"   Gusts: 21mph
Location:  52.53°N, 56.3°W
Report Text: CYMH 281000Z AUTO 28010G18KT 9SM OVC035 M05/M11 A2954 RMK SLP005
Loading
Personal Weather Stations






























Interactive Weather Map New forecast layout! Learn more

10-Day Weather Forecast

Advertisements
Track Severe Weather on mobile